Time;durP1;ratioP1;P1;durP2;ratioP2;P2;SDS_P1;SDS_P2;PMS_P1;PMS_P2;Temp;Humidity;BMP_temperature;BMP_pressure;BME280_temperature;BME280_humidity;BME280_pressure;Samples;Min_cycle;Max_cycle;Signal;HPM_P1;HPM_P2
2021/12/17 00:01:00;;;;;;;2.17;1.92;;;;;;;1.60;85.68;98485.91;4836173;29;20461;-74
2021/12/17 00:03:36;;;;;;;2.30;2.10;;;;;;;1.57;85.88;98491.34;4854811;29;20049;-75
2021/12/17 00:06:41;;;;;;;2.20;2.00;;;;;;;1.57;85.51;98488.72;4852957;29;20552;-73
2021/12/17 00:08:54;;;;;;;2.15;1.95;;;;;;;1.61;86.13;98504.22;4844569;29;20097;-74
2021/12/17 00:11:21;;;;;;;3.33;1.77;;;;;;;1.59;85.39;98503.44;4844748;29;20870;-74
2021/12/17 00:13:47;;;;;;;2.58;2.25;;;;;;;1.50;85.28;98497.84;4845162;29;20060;-76
2021/12/17 00:16:19;;;;;;;3.88;2.15;;;;;;;1.54;85.93;98502.84;4828355;29;20048;-74
2021/12/17 00:19:10;;;;;;;3.45;2.33;;;;;;;1.63;85.94;98502.38;4844968;29;20085;-73
2021/12/17 00:48:49;;;;;;;2.40;1.85;;;;;;;1.59;85.75;98528.84;4786211;29;20066;-64
2021/12/17 00:54:08;;;;;;;2.50;2.30;;;;;;;1.57;85.63;98539.47;4785689;29;20046;-68
2021/12/17 00:56:34;;;;;;;3.17;2.40;;;;;;;1.56;85.73;98542.19;4786251;29;20054;-67
2021/12/17 00:58:58;;;;;;;1.63;1.52;;;;;;;1.58;85.57;98541.16;4786391;29;20102;-68
2021/12/17 01:01:25;;;;;;;3.80;2.67;;;;;;;1.53;85.47;98540.56;4770788;29;20046;-67
2021/12/17 01:03:50;;;;;;;2.90;2.50;;;;;;;1.55;85.61;98543.97;4770972;29;20434;-67
2021/12/17 01:06:15;;;;;;;4.35;2.35;;;;;;;1.59;85.45;98542.00;4786020;29;20965;-68
2021/12/17 01:08:41;;;;;;;4.32;2.08;;;;;;;1.52;85.55;98540.63;4785987;29;20509;-72
2021/12/17 01:11:10;;;;;;;3.38;2.25;;;;;;;1.55;85.49;98538.69;4771057;29;20050;-69
2021/12/17 01:13:45;;;;;;;2.05;1.90;;;;;;;1.56;85.57;98540.41;4786282;29;20142;-74
2021/12/17 01:16:39;;;;;;;2.38;1.83;;;;;;;1.43;85.18;98542.81;4834664;29;20085;-72
2021/12/17 01:19:29;;;;;;;2.63;2.08;;;;;;;1.38;85.53;98544.81;4826964;29;20064;-68
2021/12/17 01:25:15;;;;;;;2.03;1.70;;;;;;;1.40;85.37;98550.84;4817877;29;20080;-70
2021/12/17 01:42:28;;;;;;;2.60;1.98;;;;;;;1.28;85.29;98553.25;4755188;29;20058;-71
2021/12/17 01:44:53;;;;;;;6.32;3.15;;;;;;;1.26;85.76;98563.81;4755161;29;20118;-68
2021/12/17 01:47:18;;;;;;;7.70;2.78;;;;;;;1.27;85.52;98559.44;4770367;29;20123;-72
2021/12/17 02:00:44;;;;;;;4.20;2.60;;;;;;;1.28;85.56;98564.59;4769940;29;20583;-72
2021/12/17 02:03:11;;;;;;;4.70;2.80;;;;;;;1.23;85.50;98579.75;4754718;29;20536;-77
2021/12/17 02:05:37;;;;;;;3.10;2.60;;;;;;;1.24;85.29;98583.22;4777226;29;20042;-69
2021/12/17 02:08:04;;;;;;;2.33;2.03;;;;;;;1.19;85.40;98583.44;4861154;29;20384;-72
2021/12/17 02:31:57;;;;;;;3.15;2.85;;;;;;;1.11;85.18;98587.41;4825007;29;20049;-66
2021/12/17 02:37:27;;;;;;;4.22;2.75;;;;;;;1.07;85.29;98579.66;4784610;29;20043;-73
2021/12/17 02:45:58;;;;;;;4.13;3.13;;;;;;;1.09;85.73;98596.19;4771569;29;20125;-72
2021/12/17 02:48:22;;;;;;;4.90;3.60;;;;;;;1.05;85.53;98588.53;4768021;29;20525;-69
2021/12/17 02:50:51;;;;;;;8.73;4.30;;;;;;;1.01;85.40;98595.75;4785164;29;20085;-69
2021/12/17 02:53:19;;;;;;;4.80;3.80;;;;;;;1.04;85.49;98592.94;4784362;29;20078;-70
2021/12/17 02:56:00;;;;;;;4.18;3.10;;;;;;;1.05;85.64;98588.53;4786690;29;20114;-75
2021/12/17 02:58:27;;;;;;;4.07;3.15;;;;;;;1.08;85.67;98583.16;4784482;29;20081;-66
2021/12/17 03:00:53;;;;;;;5.90;3.92;;;;;;;1.02;85.29;98589.53;4784367;29;20050;-67
2021/12/17 03:03:21;;;;;;;4.20;3.13;;;;;;;1.07;85.20;98589.31;4773256;29;20046;-75
2021/12/17 03:05:46;;;;;;;4.03;2.90;;;;;;;1.01;85.31;98595.75;4767324;29;20133;-75
2021/12/17 03:08:15;;;;;;;5.57;4.15;;;;;;;1.00;85.08;98596.66;4767386;29;20125;-73
2021/12/17 03:10:40;;;;;;;6.15;3.60;;;;;;;1.09;85.33;98590.94;4783815;29;20067;-73
2021/12/17 03:13:06;;;;;;;4.82;3.88;;;;;;;1.04;85.37;98592.09;4797659;29;20078;-66
2021/12/17 03:23:40;;;;;;;3.60;2.75;;;;;;;1.02;85.07;98597.41;4845795;29;20045;-63
2021/12/17 03:26:24;;;;;;;6.50;3.53;;;;;;;1.07;85.24;98594.56;4813213;29;20125;-66
2021/12/17 03:28:53;;;;;;;3.25;2.80;;;;;;;1.03;84.80;98596.47;4828793;29;20578;-67
2021/12/17 03:31:20;;;;;;;3.55;2.65;;;;;;;1.03;85.42;98591.22;4828627;29;20057;-67
2021/12/17 03:33:48;;;;;;;6.22;3.03;;;;;;;1.07;85.02;98586.69;4828613;29;20049;-68
2021/12/17 03:36:17;;;;;;;3.97;3.00;;;;;;;1.02;85.27;98593.94;4828748;29;20049;-65
2021/12/17 03:38:44;;;;;;;5.45;3.30;;;;;;;1.03;84.96;98596.47;4829500;29;20412;-66
2021/12/17 03:41:21;;;;;;;3.63;2.97;;;;;;;0.96;85.25;98602.13;4829825;29;20048;-65
2021/12/17 03:43:54;;;;;;;3.75;3.05;;;;;;;0.98;85.21;98600.28;4829835;29;20558;-64
2021/12/17 03:46:23;;;;;;;4.10;2.95;;;;;;;0.98;85.44;98592.41;4834290;29;20400;-64
2021/12/17 03:48:52;;;;;;;4.68;3.30;;;;;;;0.94;85.27;98598.72;4846494;29;20056;-67
2021/12/17 03:51:19;;;;;;;4.47;3.30;;;;;;;0.95;85.40;98596.03;4847302;29;20052;-66
2021/12/17 03:53:49;;;;;;;6.20;4.65;;;;;;;0.91;85.04;98591.00;4847769;29;20059;-66
2021/12/17 03:56:15;;;;;;;11.27;4.82;;;;;;;0.84;85.02;98597.47;4831497;29;20044;-65
2021/12/17 03:58:40;;;;;;;5.82;4.28;;;;;;;0.77;84.55;98589.06;4846941;29;20067;-65
2021/12/17 04:01:06;;;;;;;7.90;5.22;;;;;;;0.68;85.10;98589.47;4846620;29;20156;-68
2021/12/17 04:03:32;;;;;;;8.98;4.00;;;;;;;0.60;84.91;98589.88;4846315;29;20397;-66
2021/12/17 04:06:04;;;;;;;3.70;3.40;;;;;;;0.55;85.30;98588.41;4846479;29;20076;-66
2021/12/17 04:08:58;;;;;;;3.20;2.80;;;;;;;0.49;85.03;98591.28;4862996;29;20964;-66
2021/12/17 04:11:47;;;;;;;7.00;4.32;;;;;;;0.45;85.64;98592.38;4855417;29;20087;-67
2021/12/17 11:34:21;;;;;;;8.07;4.85;;;;;;;2.03;79.67;98891.88;4800928;29;20148;-66
2021/12/17 11:36:47;;;;;;;6.15;4.30;;;;;;;2.02;79.59;98890.19;4790426;29;20107;-68
2021/12/17 11:39:29;;;;;;;8.20;4.50;;;;;;;2.03;79.45;98890.06;4789377;29;20050;-67
2021/12/17 11:42:16;;;;;;;4.82;3.70;;;;;;;1.99;79.10;98901.69;4789025;29;20056;-68
2021/12/17 11:44:51;;;;;;;6.30;4.05;;;;;;;1.97;78.90;98895.66;4788865;29;20070;-66
2021/12/17 11:47:15;;;;;;;5.95;3.65;;;;;;;1.97;78.63;98892.16;4788859;29;20038;-69
2021/12/17 11:49:51;;;;;;;6.53;4.60;;;;;;;1.99;78.66;98896.44;4789287;29;20054;-69
2021/12/17 11:52:34;;;;;;;8.10;4.03;;;;;;;2.02;78.98;98893.66;4790541;29;20382;-75
2021/12/17 11:55:21;;;;;;;8.15;3.97;;;;;;;2.02;79.54;98896.28;4790203;29;20081;-71
2021/12/17 11:57:46;;;;;;;6.88;4.00;;;;;;;1.95;79.00;98897.50;4788828;29;20414;-72
2021/12/17 12:00:15;;;;;;;4.57;4.03;;;;;;;1.94;79.33;98895.78;4790024;29;20050;-72
2021/12/17 12:02:47;;;;;;;9.35;4.38;;;;;;;1.95;79.35;98909.78;4789977;29;20164;-68
2021/12/17 12:05:33;;;;;;;6.50;4.30;;;;;;;2.00;79.28;98918.31;4789766;29;20519;-66
2021/12/17 12:08:46;;;;;;;9.07;3.95;;;;;;;2.00;79.28;98915.69;4790001;29;20115;-67
2021/12/17 12:11:12;;;;;;;8.85;4.00;;;;;;;1.96;78.81;98908.84;4789737;29;20125;-68
2021/12/17 12:13:44;;;;;;;5.95;4.50;;;;;;;1.97;78.98;98915.81;4788472;29;20062;-72
2021/12/17 12:16:15;;;;;;;5.95;3.67;;;;;;;1.98;79.25;98914.91;4803652;29;20078;-66
2021/12/17 12:18:44;;;;;;;9.50;4.28;;;;;;;1.98;79.11;98914.91;4788330;29;20046;-68
2021/12/17 12:21:15;;;;;;;8.25;4.55;;;;;;;2.01;79.12;98922.66;4789665;29;20054;-68
2021/12/17 12:23:43;;;;;;;5.63;4.13;;;;;;;1.99;79.66;98927.13;4788772;29;20042;-67
2021/12/17 12:26:12;;;;;;;5.40;3.38;;;;;;;1.99;79.16;98920.09;4790373;29;20054;-68
2021/12/17 12:28:46;;;;;;;6.35;3.47;;;;;;;2.00;79.30;98927.06;4790561;29;20050;-68
2021/12/17 12:31:17;;;;;;;5.63;3.47;;;;;;;2.00;78.95;98924.41;4788491;29;20916;-66
2021/12/17 12:34:04;;;;;;;8.52;4.15;;;;;;;2.02;79.04;98925.19;4787906;29;20062;-68
2021/12/17 12:36:56;;;;;;;6.88;4.35;;;;;;;2.04;79.38;98930.34;4772721;29;20042;-68
2021/12/17 12:39:55;;;;;;;8.63;4.70;;;;;;;2.03;79.34;98933.94;4788055;29;20130;-68
2021/12/17 12:42:28;;;;;;;8.20;4.53;;;;;;;2.01;79.16;98925.28;4788174;29;20058;-70
2021/12/17 12:44:56;;;;;;;13.68;4.85;;;;;;;1.99;78.96;98929.75;4803366;29;20141;-69
2021/12/17 12:47:22;;;;;;;7.10;4.80;;;;;;;1.97;79.08;98928.97;4789554;29;20498;-69
2021/12/17 12:49:50;;;;;;;8.10;4.75;;;;;;;1.93;79.67;98930.03;4787211;29;20148;-70
2021/12/17 12:52:33;;;;;;;8.63;5.38;;;;;;;1.92;79.43;98933.59;4789617;29;20501;-69
2021/12/17 12:55:22;;;;;;;8.90;5.45;;;;;;;1.89;79.64;98931.97;4772908;29;20395;-68
2021/12/17 12:57:49;;;;;;;10.15;5.47;;;;;;;1.83;79.69;98935.72;4792721;29;20072;-68
2021/12/17 13:00:25;;;;;;;11.13;6.40;;;;;;;1.86;79.77;98934.72;4794165;29;20050;-69
2021/12/17 13:03:00;;;;;;;10.02;5.35;;;;;;;1.87;80.09;98946.09;4789598;29;20042;-67
2021/12/17 13:05:26;;;;;;;12.48;5.95;;;;;;;1.80;79.39;98940.28;4788391;29;20054;-64
2021/12/17 13:07:55;;;;;;;6.75;5.43;;;;;;;1.76;78.76;98934.31;4789016;29;20050;-64
2021/12/17 13:10:25;;;;;;;9.60;5.88;;;;;;;1.79;79.19;98942.06;4788947;29;20057;-69
2021/12/17 13:13:00;;;;;;;11.95;5.60;;;;;;;1.80;79.10;98935.03;4772390;29;20517;-63
2021/12/17 13:23:26;;;;;;;8.35;5.05;;;;;;;1.80;79.13;98946.41;4787502;29;20050;-65
2021/12/17 13:26:05;;;;;;;6.45;4.57;;;;;;;1.84;79.55;98952.34;4788710;29;20662;-65
2021/12/17 13:28:50;;;;;;;9.38;5.47;;;;;;;1.87;79.60;98956.63;4788775;29;20430;-70
2021/12/17 13:31:35;;;;;;;8.93;5.25;;;;;;;1.86;79.07;98960.16;4789049;29;20061;-69
2021/12/17 13:34:00;;;;;;;8.18;5.55;;;;;;;1.79;79.33;98964.88;4801649;29;20153;-68
2021/12/17 13:36:25;;;;;;;10.27;6.00;;;;;;;1.82;79.35;98962.06;4806506;29;20073;-70
2021/12/17 13:38:58;;;;;;;9.38;6.10;;;;;;;1.77;79.60;98971.97;4790053;29;20053;-69
2021/12/17 13:41:37;;;;;;;6.70;4.80;;;;;;;1.73;79.08;98980.91;4806613;29;20054;-64
2021/12/17 13:44:03;;;;;;;8.52;5.30;;;;;;;1.64;79.15;98979.56;4806725;29;20424;-74
2021/12/17 13:46:28;;;;;;;16.83;5.95;;;;;;;1.58;78.55;98979.81;4775088;29;20042;-76
2021/12/17 13:48:53;;;;;;;6.07;4.15;;;;;;;1.60;79.03;98983.22;4807166;29;20049;-79
2021/12/17 13:51:18;;;;;;;7.28;4.70;;;;;;;1.59;79.44;98989.41;4807529;29;20056;-78
2021/12/17 13:53:46;;;;;;;9.30;5.45;;;;;;;1.56;78.74;98989.56;4791766;29;20054;-77
2021/12/17 13:56:17;;;;;;;9.60;5.68;;;;;;;1.56;78.28;98983.47;4806600;29;20045;-74
2021/12/17 13:58:43;;;;;;;9.02;4.13;;;;;;;1.55;78.68;99000.16;4805542;29;20064;-72
2021/12/17 14:01:08;;;;;;;7.25;3.97;;;;;;;1.50;78.34;99004.75;4805612;29;20049;-76
2021/12/17 14:03:34;;;;;;;7.63;4.20;;;;;;;1.45;78.09;98999.72;4802340;29;20049;-77
2021/12/17 14:06:16;;;;;;;6.78;4.20;;;;;;;1.45;77.87;99002.34;4764787;29;20046;-72
2021/12/17 14:08:42;;;;;;;6.10;4.03;;;;;;;1.45;77.65;99004.97;4797212;29;20050;-74
2021/12/17 14:11:28;;;;;;;4.25;3.53;;;;;;;1.48;76.85;99010.06;4800139;29;20053;-71
2021/12/17 14:13:53;;;;;;;6.07;4.00;;;;;;;1.47;77.12;99012.78;4789927;29;20045;-72
2021/12/17 14:16:36;;;;;;;4.32;3.03;;;;;;;1.51;76.60;99009.06;4774457;29;20056;-72
2021/12/17 14:19:03;;;;;;;8.27;4.00;;;;;;;1.45;76.49;99013.69;4781521;29;20455;-74
2021/12/17 14:21:29;;;;;;;9.07;3.72;;;;;;;1.45;76.54;99018.94;4774887;29;20526;-74
2021/12/17 14:23:55;;;;;;;7.18;4.30;;;;;;;1.43;76.14;99014.69;4772273;29;20046;-75
2021/12/17 14:26:30;;;;;;;7.05;3.70;;;;;;;1.51;76.27;99024.84;4772515;29;20050;-73
2021/12/17 14:29:11;;;;;;;6.20;3.15;;;;;;;1.55;76.44;99029.88;4788655;29;20073;-73
2021/12/17 14:31:36;;;;;;;6.40;3.95;;;;;;;1.52;76.45;99024.75;4771943;29;20042;-71
2021/12/17 14:34:01;;;;;;;4.90;3.67;;;;;;;1.54;76.54;99016.81;4768949;29;20142;-71
2021/12/17 14:36:38;;;;;;;7.28;3.67;;;;;;;1.53;76.60;99026.47;4770434;29;20053;-73
2021/12/17 14:39:12;;;;;;;4.07;2.83;;;;;;;1.56;76.41;99030.75;4770585;29;20061;-74
2021/12/17 14:42:01;;;;;;;4.93;3.65;;;;;;;1.55;76.21;99035.16;4769533;29;20494;-74
2021/12/17 14:44:40;;;;;;;6.78;3.28;;;;;;;1.53;76.35;99034.34;4769193;29;20184;-70
2021/12/17 15:05:45;;;;;;;4.03;2.55;;;;;;;1.42;75.33;99057.63;4770788;29;20043;-68
2021/12/17 15:08:10;;;;;;;2.42;2.17;;;;;;;1.38;74.96;99066.53;4771653;29;20055;-73
2021/12/17 15:10:36;;;;;;;3.90;2.00;;;;;;;1.38;74.97;99069.16;4769120;29;20077;-67
2021/12/17 15:13:02;;;;;;;13.80;2.60;;;;;;;1.35;74.31;99066.69;4769530;29;20536;-68
2021/12/17 15:15:30;;;;;;;2.10;1.58;;;;;;;1.35;74.02;99079.81;4770246;29;20521;-66
2021/12/17 15:17:57;;;;;;;2.78;1.40;;;;;;;1.35;73.86;99079.81;4772254;29;20108;-68
2021/12/17 15:20:29;;;;;;;2.13;1.88;;;;;;;1.37;74.00;99083.22;4771196;29;20057;-65
2021/12/17 15:22:56;;;;;;;1.85;1.67;;;;;;;1.33;73.79;99081.66;4772114;29;20126;-66
2021/12/17 15:25:21;;;;;;;1.95;1.60;;;;;;;1.33;73.31;99082.50;4772649;29;20050;-69
2021/12/17 15:27:51;;;;;;;2.33;1.10;;;;;;;1.34;73.34;99088.63;4772670;29;20050;-69
2021/12/17 15:30:23;;;;;;;2.20;1.70;;;;;;;1.37;72.97;99086.69;4772449;29;20062;-71
2021/12/17 15:32:48;;;;;;;7.00;3.00;;;;;;;1.37;73.17;99088.47;4780967;29;20084;-68
2021/12/17 15:35:17;;;;;;;3.00;2.45;;;;;;;1.34;73.04;99092.09;4808444;29;20586;-67
2021/12/17 15:37:43;;;;;;;5.38;2.88;;;;;;;1.35;73.34;99091.19;4790115;29;20050;-73
2021/12/17 15:40:10;;;;;;;4.55;2.72;;;;;;;1.35;73.36;99088.56;4808561;29;20120;-68
2021/12/17 15:42:34;;;;;;;5.93;2.80;;;;;;;1.36;73.20;99090.22;4808109;29;20060;-69
2021/12/17 15:44:59;;;;;;;6.07;3.22;;;;;;;1.38;73.44;99090.16;4791776;29;20038;-70
2021/12/17 15:47:25;;;;;;;4.55;3.15;;;;;;;1.36;73.24;99079.72;4808609;29;20110;-71
2021/12/17 15:49:52;;;;;;;4.30;2.83;;;;;;;1.39;73.30;99081.38;4791775;29;20129;-66
2021/12/17 15:52:18;;;;;;;6.13;3.30;;;;;;;1.39;73.59;99082.22;4808369;29;20068;-69
2021/12/17 15:54:49;;;;;;;5.15;3.08;;;;;;;1.40;73.67;99089.19;4809139;29;20079;-72
2021/12/17 15:57:17;;;;;;;4.53;3.25;;;;;;;1.41;73.33;99084.78;4792853;29;20053;-72
2021/12/17 15:59:44;;;;;;;6.18;3.50;;;;;;;1.43;73.43;99090.84;4809583;29;20340;-70
2021/12/17 16:02:11;;;;;;;8.88;3.88;;;;;;;1.44;73.34;99095.19;4810755;29;21009;-74
2021/12/17 16:04:40;;;;;;;6.47;3.35;;;;;;;1.43;73.27;99099.56;4794091;29;20050;-73
2021/12/17 16:07:06;;;;;;;5.43;2.90;;;;;;;1.44;73.26;99100.44;4809228;29;20501;-75
2021/12/17 16:23:05;;;;;;;4.82;3.38;;;;;;;1.24;72.47;99116.19;4807721;29;20060;-70
2021/12/17 16:25:33;;;;;;;4.25;3.40;;;;;;;1.28;73.57;99118.59;4806610;29;20045;-69
2021/12/17 16:27:57;;;;;;;3.88;3.20;;;;;;;1.17;73.67;99120.81;4791288;29;20081;-77
2021/12/17 16:30:24;;;;;;;5.05;3.40;;;;;;;1.17;73.71;99130.47;4807926;29;20054;-73
2021/12/17 16:32:50;;;;;;;5.13;3.75;;;;;;;1.18;74.32;99119.91;4807678;29;20053;-70
2021/12/17 16:35:16;;;;;;;5.25;3.70;;;;;;;1.22;74.60;99126.75;4807109;29;20558;-72
2021/12/17 16:37:40;;;;;;;5.72;3.80;;;;;;;1.23;74.55;99123.22;4799480;29;20105;-71
2021/12/17 16:40:06;;;;;;;6.60;4.30;;;;;;;1.23;74.18;99117.97;4797509;29;20049;-72
2021/12/17 16:42:31;;;;;;;6.10;4.25;;;;;;;1.23;74.68;99122.34;4781400;29;20042;-67
2021/12/17 16:47:31;;;;;;;6.63;4.35;;;;;;;1.29;74.58;99128.19;4772921;29;20049;-71
2021/12/17 16:49:56;;;;;;;8.52;4.70;;;;;;;1.29;75.15;99125.56;4772750;29;20133;-73
2021/12/17 16:52:26;;;;;;;9.27;4.60;;;;;;;1.30;75.28;99134.28;4773232;29;20449;-68
2021/12/17 16:54:57;;;;;;;7.03;4.65;;;;;;;1.32;75.18;99132.47;4788633;29;20074;-68
2021/12/17 16:57:26;;;;;;;7.07;4.53;;;;;;;1.30;75.64;99129.03;4757629;29;20520;-68
2021/12/17 16:59:54;;;;;;;7.68;4.85;;;;;;;1.26;75.33;99130.06;4789174;29;20464;-68
2021/12/17 17:02:22;;;;;;;13.73;5.30;;;;;;;1.26;75.45;99138.81;4791452;29;20054;-68
2021/12/17 17:04:51;;;;;;;7.80;4.95;;;;;;;1.26;75.11;99136.19;4790687;29;20426;-68
2021/12/17 17:07:16;;;;;;;8.18;4.80;;;;;;;1.25;75.45;99136.25;4772445;29;20533;-69
2021/12/17 17:09:41;;;;;;;9.43;4.95;;;;;;;1.25;75.12;99139.72;4757217;29;20788;-67
2021/12/17 17:12:10;;;;;;;5.60;3.85;;;;;;;1.18;74.94;99145.31;4788539;29;20488;-67
2021/12/17 17:14:39;;;;;;;8.82;5.03;;;;;;;1.20;74.95;99146.09;4757257;29;20057;-68
2021/12/17 17:17:06;;;;;;;9.68;5.10;;;;;;;1.13;75.36;99147.28;4788422;29;20098;-72
2021/12/17 17:19:31;;;;;;;10.27;5.70;;;;;;;1.11;74.92;99149.13;4757525;29;20050;-69
2021/12/17 17:21:56;;;;;;;11.70;6.75;;;;;;;1.06;75.48;99159.78;4788533;29;20262;-70
2021/12/17 17:24:27;;;;;;;11.85;6.95;;;;;;;1.12;75.36;99156.94;4787962;29;20133;-69
2021/12/17 17:26:52;;;;;;;10.95;6.45;;;;;;;1.12;75.94;99156.06;4788285;29;20050;-66
2021/12/17 17:29:17;;;;;;;10.23;6.22;;;;;;;1.14;75.94;99157.69;4771826;29;20057;-70
2021/12/17 17:31:43;;;;;;;10.45;6.45;;;;;;;1.16;76.02;99155.00;4788075;29;20054;-69
2021/12/17 17:34:10;;;;;;;11.50;5.68;;;;;;;1.11;75.73;99159.63;4768277;29;20446;-68
2021/12/17 17:36:37;;;;;;;8.25;5.07;;;;;;;1.12;75.91;99151.69;4768035;29;20467;-69
2021/12/17 17:39:05;;;;;;;7.05;4.85;;;;;;;1.13;75.87;99155.16;4769744;29;20099;-69
2021/12/17 17:41:30;;;;;;;9.18;5.72;;;;;;;1.13;76.06;99157.78;4753889;29;20047;-68
2021/12/17 17:43:59;;;;;;;8.57;5.07;;;;;;;1.16;76.31;99160.25;4769795;29;20053;-68
2021/12/17 17:46:28;;;;;;;7.70;5.00;;;;;;;1.16;76.07;99157.63;4770338;29;20047;-68
2021/12/17 17:48:53;;;;;;;6.88;5.20;;;;;;;1.17;76.27;99167.22;4769498;29;20864;-71
2021/12/17 17:51:18;;;;;;;9.52;5.90;;;;;;;1.16;76.25;99165.50;4769923;29;20586;-67
2021/12/17 17:53:44;;;;;;;7.95;5.07;;;;;;;1.17;76.51;99164.59;4772436;29;20049;-66
2021/12/17 17:56:12;;;;;;;8.30;4.82;;;;;;;1.17;76.75;99157.56;4769913;29;20055;-68
2021/12/17 17:58:37;;;;;;;7.57;5.10;;;;;;;1.18;76.51;99171.56;4769832;29;20050;-68
2021/12/17 18:01:04;;;;;;;10.05;5.32;;;;;;;1.21;76.32;99172.28;4768857;29;20050;-68
2021/12/17 18:03:29;;;;;;;6.45;4.75;;;;;;;1.21;76.40;99168.81;4769817;29;20383;-67
2021/12/17 18:05:57;;;;;;;9.88;4.80;;;;;;;1.20;76.62;99169.72;4768632;29;20151;-68
2021/12/17 18:08:23;;;;;;;9.60;6.00;;;;;;;1.20;76.51;99182.84;4768664;29;20042;-68
2021/12/17 18:10:49;;;;;;;10.77;6.22;;;;;;;1.21;76.76;99174.91;4767774;29;20058;-68
2021/12/17 18:13:18;;;;;;;7.13;5.43;;;;;;;1.21;76.83;99171.44;4754515;29;20050;-69
2021/12/17 18:15:49;;;;;;;7.97;5.93;;;;;;;1.19;76.22;99174.13;4775457;29;20138;-71
2021/12/17 18:18:16;;;;;;;7.80;5.25;;;;;;;1.20;76.42;99174.97;4779814;29;20054;-71
2021/12/17 18:20:43;;;;;;;9.02;5.13;;;;;;;1.23;76.18;99180.13;4740378;29;20038;-68
2021/12/17 18:23:13;;;;;;;8.85;4.97;;;;;;;1.21;76.46;99174.91;4771414;29;20051;-70
2021/12/17 18:25:38;;;;;;;7.88;5.30;;;;;;;1.23;76.60;99175.72;4768764;29;20046;-68
2021/12/17 18:28:05;;;;;;;8.10;5.47;;;;;;;1.24;76.40;99176.56;4768232;29;20502;-68
2021/12/17 18:30:34;;;;;;;8.43;5.72;;;;;;;1.22;76.07;99183.66;4768383;29;20046;-70
2021/12/17 18:32:59;;;;;;;6.68;4.80;;;;;;;1.23;76.48;99188.00;4766689;29;20145;-68
2021/12/17 18:35:26;;;;;;;7.32;5.28;;;;;;;1.25;76.63;99186.13;4768763;29;20503;-69
2021/12/17 18:37:52;;;;;;;7.30;4.93;;;;;;;1.25;76.76;99186.13;4766959;29;20045;-68
2021/12/17 18:40:26;;;;;;;9.10;5.53;;;;;;;1.25;76.77;99183.50;4767189;29;20062;-68
2021/12/17 18:45:39;;;;;;;9.00;5.50;;;;;;;1.27;76.83;99197.44;4765874;29;20059;-66
2021/12/17 18:48:08;;;;;;;7.85;5.20;;;;;;;1.28;76.41;99193.88;4769517;29;20410;-65
2021/12/17 18:50:34;;;;;;;8.70;5.78;;;;;;;1.25;76.84;99184.38;4771668;29;20046;-68
2021/12/17 18:52:59;;;;;;;7.20;5.15;;;;;;;1.25;76.94;99189.63;4770447;29;20053;-67
2021/12/17 18:55:24;;;;;;;8.50;5.15;;;;;;;1.26;76.99;99193.09;4771928;29;20074;-67
2021/12/17 18:57:49;;;;;;;8.90;5.07;;;;;;;1.26;77.23;99196.56;4771299;29;20090;-67
2021/12/17 19:00:42;;;;;;;8.27;5.38;;;;;;;1.30;76.92;99198.16;4769472;29;20106;-69
2021/12/17 19:03:09;;;;;;;9.32;4.90;;;;;;;1.26;76.85;99195.72;4772461;29;20485;-69
2021/12/17 19:05:39;;;;;;;9.88;4.90;;;;;;;1.24;77.22;99205.47;4755914;29;20720;-71
2021/12/17 19:08:06;;;;;;;8.25;5.40;;;;;;;1.21;76.97;99198.56;4772214;29;20055;-68
2021/12/17 19:10:34;;;;;;;7.53;5.07;;;;;;;1.20;77.12;99211.75;4773086;29;20046;-68
2021/12/17 19:13:01;;;;;;;9.43;5.65;;;;;;;1.18;77.18;99208.31;4772842;29;20050;-67
2021/12/17 19:15:26;;;;;;;9.02;5.82;;;;;;;1.14;77.26;99206.72;4772759;29;20386;-73
2021/12/17 19:17:53;;;;;;;16.55;5.43;;;;;;;1.13;77.29;99211.13;4772911;29;20494;-73
2021/12/17 19:20:28;;;;;;;9.25;6.32;;;;;;;1.15;77.42;99209.28;4756807;29;20058;-73
2021/12/17 19:22:52;;;;;;;9.02;5.07;;;;;;;1.19;77.29;99208.25;4771712;29;20124;-74
2021/12/17 19:25:19;;;;;;;10.70;5.97;;;;;;;1.22;77.58;99213.41;4772686;29;20138;-74
2021/12/17 19:27:46;;;;;;;7.88;5.10;;;;;;;1.25;77.77;99215.88;4772938;29;20047;-74
2021/12/17 19:30:15;;;;;;;7.95;5.40;;;;;;;1.29;77.37;99222.72;4773813;29;20129;-75
2021/12/17 19:32:42;;;;;;;7.47;4.32;;;;;;;1.27;77.47;99213.19;4780561;29;20096;-74
2021/12/17 19:35:08;;;;;;;8.18;5.40;;;;;;;1.25;77.58;99213.25;4793206;29;20077;-74
2021/12/17 19:37:34;;;;;;;13.20;7.10;;;;;;;1.20;77.28;99217.84;4809496;29;20046;-74
2021/12/17 19:39:59;;;;;;;8.65;6.38;;;;;;;1.22;77.61;99220.41;4809648;29;20137;-75
2021/12/17 19:42:25;;;;;;;8.85;5.82;;;;;;;1.24;77.89;99218.59;4808456;29;20616;-73
2021/12/17 19:44:52;;;;;;;8.50;5.88;;;;;;;1.27;77.78;99219.28;4791958;29;20042;-75
2021/12/17 19:47:22;;;;;;;8.70;6.13;;;;;;;1.35;77.96;99232.13;4782215;29;20033;-74
2021/12/17 19:49:50;;;;;;;8.85;5.22;;;;;;;1.37;78.14;99228.50;4809349;29;20050;-73
2021/12/17 19:52:19;;;;;;;8.93;5.78;;;;;;;1.40;77.75;99231.00;4808624;29;20045;-74
2021/12/17 19:54:53;;;;;;;10.45;6.10;;;;;;;1.42;77.98;99228.31;4791931;29;20049;-74
2021/12/17 19:57:20;;;;;;;10.18;6.10;;;;;;;1.45;77.67;99228.22;4808267;29;20046;-74
2021/12/17 19:59:45;;;;;;;8.32;5.90;;;;;;;1.45;77.83;99238.72;4808039;29;20137;-74
2021/12/17 20:02:11;;;;;;;8.13;5.45;;;;;;;1.44;77.43;99237.00;4791537;29;20121;-72
2021/12/17 20:04:40;;;;;;;12.80;5.47;;;;;;;1.45;76.91;99234.31;4762189;29;20050;-73
2021/12/17 20:07:09;;;;;;;9.57;5.80;;;;;;;1.49;76.91;99240.28;4810417;29;20062;-74
2021/12/17 20:09:35;;;;;;;8.80;5.35;;;;;;;1.51;77.29;99241.06;4778940;29;20109;-74
2021/12/17 20:12:01;;;;;;;11.48;5.30;;;;;;;1.54;76.75;99235.72;4793614;29;20818;-66
2021/12/17 20:14:26;;;;;;;11.75;5.90;;;;;;;1.56;76.83;99241.75;4808060;29;20544;-68
2021/12/17 20:16:55;;;;;;;7.30;4.65;;;;;;;1.59;76.62;99246.00;4808019;29;20085;-72
2021/12/17 20:19:20;;;;;;;9.57;4.60;;;;;;;1.59;77.08;99238.97;4807963;29;20054;-71
2021/12/17 20:21:48;;;;;;;13.50;5.97;;;;;;;1.59;76.94;99248.63;4808019;29;20061;-70
2021/12/17 20:24:13;;;;;;;12.27;6.15;;;;;;;1.58;76.56;99239.06;4775944;29;20054;-71
2021/12/17 20:26:38;;;;;;;8.23;5.45;;;;;;;1.52;76.31;99242.78;4776671;29;20054;-70
2021/12/17 20:29:03;;;;;;;8.27;5.40;;;;;;;1.52;75.88;99245.41;4798965;29;20049;-71
2021/12/17 20:31:28;;;;;;;12.70;5.10;;;;;;;1.52;76.20;99240.16;4789647;29;20058;-75
2021/12/17 20:33:54;;;;;;;7.90;5.30;;;;;;;1.52;76.05;99245.41;4789456;29;20811;-70
2021/12/17 20:36:21;;;;;;;9.85;4.60;;;;;;;1.52;76.36;99247.19;4777771;29;20095;-71
2021/12/17 20:38:47;;;;;;;10.70;5.65;;;;;;;1.48;75.89;99237.72;4773423;29;20057;-70
2021/12/17 20:41:12;;;;;;;12.07;6.18;;;;;;;1.41;75.53;99242.38;4782373;29;20102;-70
2021/12/17 20:43:47;;;;;;;9.00;5.70;;;;;;;1.38;75.75;99245.97;4791620;29;20054;-68
2021/12/17 20:46:16;;;;;;;11.20;6.25;;;;;;;1.42;76.58;99255.44;4773065;29;20053;-69
2021/12/17 20:48:42;;;;;;;5.82;4.72;;;;;;;1.40;76.34;99253.78;4789653;29;20137;-71
2021/12/17 20:51:08;;;;;;;11.07;5.68;;;;;;;1.37;76.10;99252.13;4794448;29;20050;-69
2021/12/17 20:53:34;;;;;;;7.40;5.20;;;;;;;1.35;76.18;99254.00;4790449;29;20050;-72
2021/12/17 20:55:59;;;;;;;7.60;5.30;;;;;;;1.36;76.99;99260.06;4782527;29;20053;-70
2021/12/17 20:58:25;;;;;;;8.02;5.30;;;;;;;1.29;76.34;99259.47;4781954;29;20045;-72
2021/12/17 21:00:51;;;;;;;9.43;5.57;;;;;;;1.29;76.22;99264.72;4783376;29;20582;-67
2021/12/17 21:03:16;;;;;;;8.98;6.20;;;;;;;1.26;76.34;99264.84;4783839;29;20068;-72
2021/12/17 21:05:45;;;;;;;7.85;5.63;;;;;;;1.22;76.30;99262.44;4795972;29;20045;-70
2021/12/17 21:08:10;;;;;;;17.70;6.43;;;;;;;1.22;76.90;99267.69;4787525;29;20060;-69
2021/12/17 21:10:37;;;;;;;8.93;5.20;;;;;;;1.23;77.02;99257.13;4805628;29;20054;-68
2021/12/17 21:13:09;;;;;;;9.10;6.10;;;;;;;1.24;76.92;99260.59;4774953;29;20107;-73
2021/12/17 21:15:43;;;;;;;8.82;5.68;;;;;;;1.27;77.04;99265.69;4775675;29;20041;-69
2021/12/17 21:18:11;;;;;;;17.15;5.43;;;;;;;1.30;76.81;99268.22;4799944;29;20418;-69
2021/12/17 21:20:42;;;;;;;10.48;6.65;;;;;;;1.30;77.06;99269.06;4779412;29;20451;-67
2021/12/17 21:23:12;;;;;;;8.60;6.03;;;;;;;1.32;76.75;99274.25;4780525;29;20105;-67
2021/12/17 21:25:37;;;;;;;9.48;6.15;;;;;;;1.30;77.10;99271.69;4797863;29;20481;-69
2021/12/17 21:28:02;;;;;;;11.23;5.95;;;;;;;1.34;76.84;99275.06;4797287;29;20583;-66
2021/12/17 21:30:27;;;;;;;9.45;6.18;;;;;;;1.36;77.02;99273.22;4795038;29;20045;-73
2021/12/17 21:32:52;;;;;;;11.13;5.70;;;;;;;1.39;76.86;99275.72;4774535;29;20671;-72
2021/12/17 21:35:21;;;;;;;9.00;4.95;;;;;;;1.41;77.04;99268.63;4806196;29;20110;-73